createdAt,value
2019-01-27T00:01:54.618Z,15.23
2019-01-27T00:04:21.849Z,13.60
2019-01-27T00:06:49.138Z,17.53
2019-01-27T00:09:16.462Z,14.17
2019-01-27T00:11:43.698Z,11.03
2019-01-27T00:14:11.096Z,13.67
2019-01-27T00:16:38.410Z,11.50
2019-01-27T00:19:05.746Z,10.97
2019-01-27T00:21:33.198Z,11.53
2019-01-27T00:24:00.434Z,15.80
2019-01-27T00:26:27.792Z,11.80
2019-01-27T00:28:55.026Z,10.30
2019-01-27T00:31:22.256Z,11.33
2019-01-27T00:33:49.489Z,14.00
2019-01-27T00:36:16.850Z,11.80
2019-01-27T00:38:44.245Z,13.00
2019-01-27T00:41:11.499Z,11.73
2019-01-27T00:43:38.842Z,11.57
2019-01-27T00:46:06.567Z,12.33
2019-01-27T00:48:34.099Z,12.20
2019-01-27T00:51:01.453Z,13.07
2019-01-27T00:53:28.689Z,17.73
2019-01-27T00:55:56.106Z,14.43
2019-01-27T00:58:23.360Z,15.60
2019-01-27T01:00:50.737Z,14.17
2019-01-27T01:03:18.125Z,13.73
2019-01-27T01:05:45.390Z,14.40
2019-01-27T01:08:12.802Z,13.37
2019-01-27T01:10:40.082Z,13.90
2019-01-27T01:13:07.539Z,14.60
2019-01-27T01:15:34.909Z,14.00
2019-01-27T01:18:02.557Z,14.10
2019-01-27T01:20:29.948Z,18.43
2019-01-27T01:22:57.317Z,16.20
2019-01-27T01:25:24.694Z,14.40
2019-01-27T01:27:52.348Z,18.53
2019-01-27T01:30:23.342Z,18.17
2019-01-27T01:32:50.757Z,17.80
2019-01-27T01:35:18.229Z,16.87
2019-01-27T01:37:45.496Z,19.30
2019-01-27T01:40:15.128Z,17.47
2019-01-27T01:42:42.398Z,17.37
2019-01-27T01:45:22.589Z,23.63
2019-01-27T01:47:49.858Z,21.50
2019-01-27T01:50:17.198Z,19.87
2019-01-27T01:52:44.550Z,16.83
2019-01-27T01:55:12.378Z,15.53
2019-01-27T01:57:39.771Z,15.10
2019-01-27T02:00:10.266Z,15.10
2019-01-27T02:02:37.649Z,14.37
2019-01-27T02:05:05.782Z,17.30
2019-01-27T02:07:33.157Z,16.90
2019-01-27T02:10:00.519Z,17.13
2019-01-27T02:12:27.962Z,17.77
2019-01-27T02:14:55.257Z,15.53
2019-01-27T02:17:22.530Z,20.30
2019-01-27T02:19:49.930Z,17.57
2019-01-27T02:22:17.277Z,14.00
2019-01-27T02:24:44.735Z,15.70
2019-01-27T02:27:12.103Z,14.73
2019-01-27T02:29:39.513Z,16.00
2019-01-27T02:32:06.798Z,17.93
2019-01-27T02:34:34.041Z,15.90
2019-01-27T02:37:01.429Z,16.80
2019-01-27T02:39:28.895Z,17.70
2019-01-27T02:41:56.255Z,19.47
2019-01-27T02:44:23.541Z,14.13
2019-01-27T02:46:52.679Z,21.30
2019-01-27T02:49:20.073Z,16.60
2019-01-27T02:51:47.433Z,17.33
2019-01-27T02:54:14.870Z,20.73
2019-01-27T02:56:42.106Z,18.70
2019-01-27T02:59:09.474Z,18.83
2019-01-27T03:01:36.829Z,21.07
2019-01-27T03:04:05.697Z,17.20
2019-01-27T03:07:04.637Z,20.10
2019-01-27T03:09:38.561Z,18.07
2019-01-27T03:12:06.346Z,17.07
2019-01-27T03:14:33.755Z,19.33
2019-01-27T03:17:01.322Z,18.10
2019-01-27T03:19:28.586Z,18.83
2019-01-27T03:21:55.821Z,20.40
2019-01-27T03:24:23.058Z,19.07
2019-01-27T03:26:50.426Z,18.17
2019-01-27T03:29:17.651Z,19.53
2019-01-27T03:31:44.931Z,21.27
2019-01-27T03:34:12.285Z,20.23
2019-01-27T03:36:39.649Z,22.43
2019-01-27T03:39:09.102Z,21.63
2019-01-27T03:41:36.565Z,22.23
2019-01-27T03:44:05.737Z,28.97
2019-01-27T03:46:52.480Z,26.37
2019-01-27T03:49:19.822Z,23.23
2019-01-27T03:51:47.530Z,26.63
2019-01-27T03:54:14.849Z,25.50
2019-01-27T03:56:42.218Z,35.57
2019-01-27T03:59:09.598Z,26.00
2019-01-27T04:01:36.946Z,26.43
2019-01-27T04:04:05.522Z,22.87
2019-01-27T04:06:32.838Z,24.30
2019-01-27T04:09:00.125Z,26.40
2019-01-27T04:11:27.830Z,30.63
2019-01-27T04:13:55.202Z,30.07
2019-01-27T04:16:22.466Z,27.93
2019-01-27T04:18:49.718Z,27.53
2019-01-27T04:21:17.353Z,26.47
2019-01-27T04:23:44.641Z,26.67
2019-01-27T04:26:12.006Z,22.70
2019-01-27T04:28:39.276Z,26.60
2019-01-27T04:31:06.698Z,30.70
2019-01-27T04:33:33.971Z,31.13
2019-01-27T04:36:01.331Z,24.23
2019-01-27T04:38:28.598Z,25.93
2019-01-27T04:40:55.826Z,25.90
2019-01-27T04:43:23.310Z,29.67
2019-01-27T04:45:50.726Z,27.57
2019-01-27T04:48:18.001Z,30.83
2019-01-27T04:50:45.478Z,27.90
2019-01-27T04:53:12.918Z,22.00
2019-01-27T04:55:40.167Z,19.97
2019-01-27T04:58:07.506Z,21.17
2019-01-27T05:00:34.742Z,17.60
2019-01-27T05:03:13.257Z,15.83
2019-01-27T05:05:40.702Z,13.80
2019-01-27T05:08:08.014Z,14.40
2019-01-27T05:10:35.285Z,13.37
2019-01-27T05:13:02.978Z,16.10
2019-01-27T05:15:30.626Z,16.83
2019-01-27T05:17:57.882Z,18.10
2019-01-27T05:20:25.145Z,18.17
2019-01-27T05:22:52.366Z,16.80
2019-01-27T05:25:19.695Z,10.13
2019-01-27T05:27:47.089Z,14.63
2019-01-27T05:30:17.154Z,18.07
2019-01-27T05:32:44.507Z,15.20
2019-01-27T05:35:11.850Z,19.90
2019-01-27T05:37:39.263Z,16.60
2019-01-27T05:40:08.096Z,17.70
2019-01-27T05:42:35.374Z,16.60
2019-01-27T05:45:03.585Z,16.77
2019-01-27T05:47:30.918Z,16.40
2019-01-27T05:49:58.362Z,18.67
2019-01-27T05:52:25.588Z,16.80
2019-01-27T05:54:52.914Z,18.40
2019-01-27T05:57:20.280Z,19.73
2019-01-27T05:59:47.675Z,19.17
2019-01-27T06:02:14.917Z,21.40
2019-01-27T06:04:42.187Z,24.57
2019-01-27T06:07:09.450Z,21.50
2019-01-27T06:09:36.835Z,17.23
2019-01-27T06:12:04.208Z,24.23
2019-01-27T06:14:31.427Z,21.30
2019-01-27T06:16:58.833Z,17.53
2019-01-27T06:19:26.343Z,23.23
2019-01-27T06:21:53.586Z,16.13
2019-01-27T06:24:20.962Z,14.87
2019-01-27T06:26:48.347Z,15.90
2019-01-27T06:29:15.814Z,21.43
2019-01-27T06:31:43.107Z,18.23
2019-01-27T06:34:13.597Z,21.90
2019-01-27T06:36:40.830Z,15.53
2019-01-27T06:39:08.325Z,16.23
2019-01-27T06:41:35.565Z,15.57
2019-01-27T06:44:03.022Z,17.83
2019-01-27T06:46:30.250Z,17.03
2019-01-27T06:48:57.529Z,15.97
2019-01-27T06:51:24.821Z,15.53
2019-01-27T06:53:52.054Z,16.70
2019-01-27T06:56:19.365Z,15.70
2019-01-27T06:59:14.811Z,15.83
2019-01-27T07:01:46.267Z,17.73
2019-01-27T07:04:21.186Z,15.13
2019-01-27T07:06:56.246Z,16.17
2019-01-27T07:09:32.214Z,23.13
2019-01-27T07:12:19.367Z,18.90
2019-01-27T07:15:01.384Z,16.10
2019-01-27T07:17:40.603Z,15.73
2019-01-27T07:20:41.397Z,20.93
2019-01-27T07:23:32.657Z,21.47
2019-01-27T07:26:15.461Z,15.17
2019-01-27T07:28:51.838Z,17.27
2019-01-27T07:31:33.397Z,21.20
2019-01-27T07:34:26.688Z,23.30
2019-01-27T07:37:12.713Z,21.03
2019-01-27T07:40:02.107Z,23.30
2019-01-27T07:42:54.864Z,23.03
2019-01-27T07:45:56.863Z,19.07
2019-01-27T07:48:42.417Z,15.93
2019-01-27T07:51:29.263Z,22.23
2019-01-27T07:54:16.161Z,24.80
2019-01-27T07:57:03.268Z,22.00
2019-01-27T07:59:51.514Z,20.53
2019-01-27T08:02:32.746Z,17.03
2019-01-27T08:05:33.581Z,23.40
2019-01-27T08:08:10.166Z,32.70
2019-01-27T08:10:47.250Z,26.53
2019-01-27T08:13:32.883Z,20.20
2019-01-27T08:16:06.682Z,21.80
2019-01-27T08:18:44.899Z,20.60
2019-01-27T08:21:22.786Z,20.00
2019-01-27T08:24:09.978Z,26.20
2019-01-27T08:26:56.818Z,23.70
2019-01-27T08:29:42.427Z,22.37
2019-01-27T08:32:28.157Z,35.53
2019-01-27T08:34:59.684Z,37.47
2019-01-27T08:37:38.337Z,54.57
2019-01-27T08:40:19.382Z,37.40
2019-01-27T08:43:18.369Z,33.03
2019-01-27T08:45:53.313Z,25.77
2019-01-27T08:48:20.537Z,25.77
2019-01-27T08:50:47.790Z,28.13
2019-01-27T08:53:15.274Z,22.00
2019-01-27T08:55:42.550Z,46.03
2019-01-27T08:58:09.893Z,64.33
2019-01-27T09:00:42.865Z,30.70
2019-01-27T09:03:23.158Z,20.67
2019-01-27T09:06:05.318Z,20.80
2019-01-27T09:09:03.640Z,18.27
2019-01-27T09:11:50.554Z,17.90
2019-01-27T09:14:46.585Z,21.90
2019-01-27T09:17:26.311Z,21.10
2019-01-27T09:20:15.686Z,22.33
2019-01-27T09:23:01.259Z,20.93
2019-01-27T09:25:43.701Z,20.70
2019-01-27T09:28:30.620Z,29.40
2019-01-27T09:31:11.517Z,19.00
2019-01-27T09:34:13.200Z,15.53
2019-01-27T09:37:07.971Z,12.03
2019-01-27T09:39:49.552Z,19.23
2019-01-27T09:42:35.185Z,9.20
2019-01-27T09:45:22.598Z,10.70
2019-01-27T09:48:08.054Z,21.33
2019-01-27T09:50:46.126Z,24.40
2019-01-27T09:53:36.714Z,26.20
2019-01-27T09:56:15.681Z,33.97
2019-01-27T09:59:03.370Z,31.43
2019-01-27T10:01:43.785Z,16.30
2019-01-27T10:04:17.542Z,17.90
2019-01-27T10:07:05.106Z,19.73
2019-01-27T10:09:54.674Z,15.63
2019-01-27T10:12:40.253Z,13.20
2019-01-27T10:15:29.270Z,509.00
2019-01-27T10:18:14.633Z,249.80
2019-01-27T10:21:01.585Z,40.17
2019-01-27T10:23:57.546Z,18.43
2019-01-27T10:26:43.037Z,12.23
2019-01-27T10:29:25.898Z,21.77
2019-01-27T10:32:03.283Z,26.63
2019-01-27T10:34:55.585Z,13.43
2019-01-27T10:37:37.512Z,14.87
2019-01-27T10:40:21.000Z,13.00
2019-01-27T10:43:05.430Z,15.30
2019-01-27T10:46:04.358Z,20.83
2019-01-27T10:48:49.918Z,40.63
2019-01-27T10:51:26.500Z,43.33
2019-01-27T10:53:58.718Z,24.20
2019-01-27T10:56:45.634Z,19.77
2019-01-27T10:59:42.986Z,24.20
2019-01-27T11:02:28.653Z,29.73
2019-01-27T11:05:18.025Z,21.83
2019-01-27T11:07:55.278Z,24.33
2019-01-27T11:10:39.163Z,21.40
2019-01-27T11:13:34.837Z,43.60
2019-01-27T11:16:13.114Z,42.23
2019-01-27T11:18:54.617Z,87.57
2019-01-27T11:21:40.309Z,35.20
2019-01-27T11:24:19.809Z,65.13
2019-01-27T11:27:05.277Z,37.80
2019-01-27T11:29:45.426Z,47.40
2019-01-27T11:32:35.305Z,58.30
2019-01-27T11:35:26.463Z,77.03
2019-01-27T11:38:03.502Z,32.87
2019-01-27T11:41:05.701Z,23.57
2019-01-27T11:43:43.781Z,19.10
2019-01-27T11:46:30.692Z,17.50
2019-01-27T11:49:26.807Z,16.47
2019-01-27T11:52:19.655Z,15.87
2019-01-27T11:54:47.315Z,26.70
2019-01-27T11:57:15.142Z,16.10
2019-01-27T11:59:42.479Z,13.50
2019-01-27T12:02:09.883Z,14.20
2019-01-27T12:04:37.130Z,20.47
2019-01-27T12:07:04.421Z,17.27
2019-01-27T12:09:31.634Z,22.13
2019-01-27T12:11:59.532Z,20.63
2019-01-27T12:14:26.979Z,26.63
2019-01-27T12:16:54.244Z,23.93
2019-01-27T12:19:21.478Z,20.93
2019-01-27T12:21:48.713Z,19.20
2019-01-27T12:24:16.081Z,22.67
2019-01-27T12:26:43.592Z,26.00
2019-01-27T12:29:11.027Z,19.00
2019-01-27T12:31:38.462Z,24.40
2019-01-27T12:34:05.850Z,22.20
2019-01-27T12:36:33.274Z,24.17
2019-01-27T12:39:00.493Z,23.57
2019-01-27T12:41:27.753Z,24.13
2019-01-27T12:43:55.066Z,14.43
2019-01-27T12:46:22.314Z,24.13
2019-01-27T12:48:49.742Z,23.80
2019-01-27T12:51:17.006Z,14.67
2019-01-27T12:53:44.389Z,9.97
2019-01-27T12:56:11.721Z,15.50
2019-01-27T12:58:38.974Z,16.03
2019-01-27T13:01:08.965Z,35.60
2019-01-27T13:03:36.178Z,37.40
2019-01-27T13:06:04.049Z,29.30
2019-01-27T13:08:31.498Z,29.57
2019-01-27T13:10:58.852Z,28.77
2019-01-27T13:13:26.370Z,25.87
2019-01-27T13:15:53.626Z,24.23
2019-01-27T13:18:20.839Z,26.23
2019-01-27T13:20:48.062Z,29.70
2019-01-27T13:23:15.382Z,25.57
2019-01-27T13:25:42.782Z,29.80
2019-01-27T13:28:10.173Z,9.63
2019-01-27T13:30:37.391Z,5.27
2019-01-27T13:33:04.625Z,5.90
2019-01-27T13:35:31.845Z,2.57
2019-01-27T13:37:59.224Z,5.20
2019-01-27T13:40:26.541Z,14.53
2019-01-27T13:42:53.801Z,5.43
2019-01-27T13:45:23.386Z,7.93
2019-01-27T13:47:50.622Z,3.83
2019-01-27T13:50:17.950Z,4.53
2019-01-27T13:52:45.266Z,4.10
2019-01-27T13:55:15.682Z,4.10
2019-01-27T13:57:43.109Z,4.60
2019-01-27T14:00:16.403Z,6.00
2019-01-27T14:02:43.637Z,4.30
2019-01-27T14:05:10.905Z,6.13
2019-01-27T14:07:38.363Z,12.33
2019-01-27T14:10:08.981Z,10.77
2019-01-27T14:12:36.232Z,9.70
2019-01-27T14:15:04.550Z,8.60
2019-01-27T14:17:31.792Z,12.37
2019-01-27T14:19:59.009Z,10.37
2019-01-27T14:22:26.253Z,10.97
2019-01-27T14:24:53.598Z,9.40
2019-01-27T14:27:21.149Z,8.87
2019-01-27T14:29:48.522Z,10.27
2019-01-27T14:32:16.078Z,8.43
2019-01-27T14:34:43.321Z,10.90
2019-01-27T14:37:10.650Z,11.30
2019-01-27T14:39:37.990Z,10.93
2019-01-27T14:42:05.233Z,11.00
2019-01-27T14:44:32.531Z,7.90
2019-01-27T14:47:00.102Z,23.63
2019-01-27T14:49:27.429Z,8.80
2019-01-27T14:51:54.798Z,10.63
2019-01-27T14:54:22.129Z,5.27
2019-01-27T14:56:49.510Z,6.17
2019-01-27T14:59:16.855Z,10.50
2019-01-27T15:01:44.097Z,14.60
2019-01-27T15:04:11.604Z,20.60
2019-01-27T15:06:38.835Z,21.50
2019-01-27T15:09:08.200Z,23.67
2019-01-27T15:11:35.570Z,39.43
2019-01-27T15:14:03.678Z,103.03
2019-01-27T15:16:30.922Z,41.93
2019-01-27T15:18:58.414Z,34.53
2019-01-27T15:21:27.022Z,123.50
2019-01-27T15:23:54.301Z,115.90
2019-01-27T15:26:21.625Z,124.57
2019-01-27T15:28:49.022Z,90.53
2019-01-27T15:31:16.393Z,153.03
2019-01-27T15:33:43.659Z,146.27
2019-01-27T15:36:10.897Z,260.53
2019-01-27T15:38:38.181Z,156.30
2019-01-27T15:41:05.435Z,88.27
2019-01-27T15:43:32.679Z,61.17
2019-01-27T15:45:59.958Z,58.73
2019-01-27T15:48:27.189Z,55.60
2019-01-27T15:50:54.446Z,56.93
2019-01-27T15:53:21.806Z,63.87
2019-01-27T15:55:49.324Z,66.40
2019-01-27T15:58:16.658Z,60.93
2019-01-27T16:00:44.017Z,66.30
2019-01-27T16:03:11.249Z,70.17
2019-01-27T16:05:39.076Z,53.37
2019-01-27T16:08:06.503Z,50.90
2019-01-27T16:10:33.726Z,51.33
2019-01-27T16:13:00.982Z,58.00
2019-01-27T16:15:29.854Z,56.53
2019-01-27T16:17:57.278Z,58.67
2019-01-27T16:20:25.178Z,65.30
2019-01-27T16:23:23.906Z,65.83
2019-01-27T16:25:51.255Z,73.03
2019-01-27T16:28:18.517Z,76.17
2019-01-27T16:31:04.631Z,84.77
2019-01-27T16:33:40.101Z,143.93
2019-01-27T16:36:07.514Z,93.57
2019-01-27T16:38:36.630Z,118.67
2019-01-27T16:41:04.001Z,119.83
2019-01-27T16:43:31.262Z,92.50
2019-01-27T16:45:58.682Z,83.53
2019-01-27T16:48:26.061Z,82.00
2019-01-27T16:50:53.278Z,114.70
2019-01-27T16:53:20.536Z,87.67
2019-01-27T16:55:47.969Z,110.47
2019-01-27T16:58:15.414Z,100.50
2019-01-27T17:00:42.823Z,101.23
2019-01-27T17:03:10.210Z,107.30
2019-01-27T17:05:37.457Z,136.17
2019-01-27T17:08:04.720Z,102.17
2019-01-27T17:10:32.062Z,93.40
2019-01-27T17:12:59.335Z,89.17
2019-01-27T17:15:26.689Z,92.93
2019-01-27T17:17:53.937Z,98.67
2019-01-27T17:20:25.635Z,143.57
2019-01-27T17:22:50.763Z,160.10
2019-01-27T17:25:18.014Z,120.27
2019-01-27T17:27:45.706Z,119.33
2019-01-27T17:30:14.829Z,100.77
2019-01-27T17:32:42.198Z,101.47
2019-01-27T17:35:11.122Z,89.53
2019-01-27T17:37:38.364Z,104.93
2019-01-27T17:40:07.369Z,76.93
2019-01-27T17:42:34.838Z,84.23
2019-01-27T17:45:02.302Z,83.47
2019-01-27T17:47:29.738Z,84.20
2019-01-27T17:49:57.157Z,86.13
2019-01-27T17:52:24.652Z,85.37
2019-01-27T17:54:52.035Z,85.63
2019-01-27T17:57:37.335Z,88.43
2019-01-27T18:00:24.085Z,93.53
2019-01-27T18:03:03.394Z,94.63
2019-01-27T18:05:38.926Z,84.00
2019-01-27T18:08:10.704Z,79.07
2019-01-27T18:10:54.730Z,88.30
2019-01-27T18:13:47.626Z,89.63
2019-01-27T18:16:14.860Z,102.27
2019-01-27T18:18:42.229Z,97.60
2019-01-27T18:21:09.486Z,100.03
2019-01-27T18:23:36.982Z,93.00
2019-01-27T18:26:04.326Z,140.40
2019-01-27T18:28:31.554Z,102.17
2019-01-27T18:30:58.918Z,139.20
2019-01-27T18:33:26.381Z,100.63
2019-01-27T18:35:53.756Z,110.80
2019-01-27T18:38:21.202Z,126.17
2019-01-27T18:40:50.317Z,122.27
2019-01-27T18:43:17.775Z,105.60
2019-01-27T18:45:45.015Z,111.90
2019-01-27T18:48:12.255Z,127.73
2019-01-27T18:50:39.730Z,115.10
2019-01-27T18:53:41.978Z,142.40
2019-01-27T18:56:20.042Z,129.03
2019-01-27T18:59:05.734Z,116.17
2019-01-27T19:02:04.594Z,118.03
2019-01-27T19:04:42.386Z,124.47
2019-01-27T19:07:44.647Z,116.07
2019-01-27T19:10:34.591Z,124.77
2019-01-27T19:13:09.798Z,117.43
2019-01-27T19:15:58.554Z,107.83
2019-01-27T19:18:51.782Z,118.57
2019-01-27T19:21:50.470Z,125.07
2019-01-27T19:24:52.512Z,111.47
2019-01-27T19:27:35.887Z,116.73
2019-01-27T19:30:18.479Z,112.60
2019-01-27T19:32:52.733Z,106.03
2019-01-27T19:35:40.884Z,99.37
2019-01-27T19:38:27.052Z,96.33
2019-01-27T19:41:14.056Z,117.93
2019-01-27T19:43:50.221Z,98.50
2019-01-27T19:46:49.258Z,96.00
2019-01-27T19:49:34.825Z,90.13
2019-01-27T19:52:19.482Z,92.30
2019-01-27T19:55:00.280Z,99.40
2019-01-27T19:57:53.062Z,94.77
2019-01-27T20:00:26.678Z,94.70
2019-01-27T20:03:00.301Z,102.27
2019-01-27T20:05:47.035Z,102.33
2019-01-27T20:08:32.613Z,96.43
2019-01-27T20:11:08.424Z,98.87
2019-01-27T20:13:52.165Z,87.43
2019-01-27T20:16:43.676Z,103.47
2019-01-27T20:19:18.133Z,92.03
2019-01-27T20:21:53.647Z,94.00
2019-01-27T20:24:45.469Z,106.17
2019-01-27T20:27:38.307Z,88.83
2019-01-27T20:30:26.627Z,95.80
2019-01-27T20:33:16.131Z,104.37
2019-01-27T20:36:00.163Z,92.97
2019-01-27T20:38:40.239Z,94.63
2019-01-27T20:41:36.139Z,102.57
2019-01-27T20:44:08.654Z,98.87
2019-01-27T20:46:54.185Z,103.67
2019-01-27T20:49:39.634Z,96.97
2019-01-27T20:52:32.173Z,101.37
2019-01-27T20:55:09.846Z,104.40
2019-01-27T20:57:55.665Z,109.77
2019-01-27T21:00:42.530Z,102.53
2019-01-27T21:03:35.056Z,100.53
2019-01-27T21:06:20.994Z,99.40
2019-01-27T21:09:00.218Z,101.00
2019-01-27T21:11:46.218Z,98.53
2019-01-27T21:14:33.093Z,94.53
2019-01-27T21:17:28.826Z,90.27
2019-01-27T21:20:00.609Z,91.77
2019-01-27T21:22:27.810Z,95.23
2019-01-27T21:24:55.077Z,92.60
2019-01-27T21:27:22.566Z,93.07
2019-01-27T21:29:49.814Z,99.40
2019-01-27T21:32:17.672Z,98.17
2019-01-27T21:34:44.906Z,98.20
2019-01-27T21:37:12.133Z,98.10
2019-01-27T21:39:39.388Z,98.60
2019-01-27T21:42:06.806Z,99.47
2019-01-27T21:44:34.182Z,89.80
2019-01-27T21:47:01.460Z,139.67
2019-01-27T21:49:28.971Z,90.60
2019-01-27T21:51:56.366Z,100.77
2019-01-27T21:54:23.614Z,94.03
2019-01-27T21:56:50.836Z,98.10
2019-01-27T21:59:18.102Z,107.73
2019-01-27T22:01:45.382Z,87.13
2019-01-27T22:04:12.751Z,107.07
2019-01-27T22:06:40.059Z,91.50
2019-01-27T22:09:08.358Z,92.73
2019-01-27T22:11:35.706Z,91.33
2019-01-27T22:14:03.668Z,109.63
2019-01-27T22:16:31.011Z,92.50
2019-01-27T22:18:58.293Z,94.17
2019-01-27T22:21:25.891Z,98.50
2019-01-27T22:23:53.474Z,87.13
2019-01-27T22:26:20.765Z,108.77
2019-01-27T22:28:48.159Z,100.93
2019-01-27T22:31:15.479Z,99.83
2019-01-27T22:33:42.878Z,98.67
2019-01-27T22:36:10.114Z,95.33
2019-01-27T22:38:37.730Z,90.90
2019-01-27T22:41:05.075Z,98.83
2019-01-27T22:43:32.322Z,97.93
2019-01-27T22:45:59.734Z,93.60
2019-01-27T22:48:26.961Z,107.50
2019-01-27T22:50:54.341Z,96.07
2019-01-27T22:53:21.617Z,102.30
2019-01-27T22:55:49.025Z,88.03
2019-01-27T22:58:16.265Z,94.93
2019-01-27T23:01:00.131Z,114.10
2019-01-27T23:03:29.550Z,96.17
2019-01-27T23:05:56.833Z,93.50
2019-01-27T23:08:24.234Z,102.13
2019-01-27T23:10:51.464Z,104.17
2019-01-27T23:13:18.716Z,104.27
2019-01-27T23:15:46.117Z,101.67
2019-01-27T23:18:26.223Z,108.93
2019-01-27T23:20:53.445Z,110.33
2019-01-27T23:23:20.814Z,109.90
2019-01-27T23:25:48.092Z,101.50
2019-01-27T23:28:15.327Z,104.60
2019-01-27T23:30:42.665Z,120.10
2019-01-27T23:33:10.017Z,105.60
2019-01-27T23:35:37.385Z,101.50
2019-01-27T23:38:04.611Z,105.10
2019-01-27T23:40:31.993Z,104.03
2019-01-27T23:42:59.330Z,108.60
2019-01-27T23:45:26.704Z,95.47
2019-01-27T23:47:53.979Z,110.90
2019-01-27T23:50:21.226Z,111.23
2019-01-27T23:52:48.651Z,113.07
2019-01-27T23:55:16.035Z,118.73
2019-01-27T23:57:43.288Z,124.23
